Flight Track Log - Related Links

Times and Time Zones

All times are in EST time to prevent confusion due to time zone crossing. See the N8414Z flight status page for this flight to view local times or setup timezone preferences in your user account.


Time Position Orientation Groundspeed Altitude Reporting Facility
EST Latitude Longitude Course Direction KTS MPH feet Rate Location/Type
Mon 09:18:00 PM 30.3438 -84.0780 130° Southeast  Level FlightAware Approximate
Mon 09:19:00 PM 30.3171 -84.0406 130° Southeast  Level FlightAware Approximate
Mon 09:20:00 PM 30.2908 -84.0028 128° Southeast  Level FlightAware Approximate
Mon 09:21:00 PM 30.2652 -83.9643 128° Southeast  Level FlightAware Approximate
Mon 09:22:00 PM 30.2396 -83.9259 128° Southeast  Level FlightAware Approximate
Mon 09:23:00 PM 30.2139 -83.8875 128° Southeast  Level FlightAware Approximate
Mon 09:24:00 PM 30.1883 -83.8491 128° Southeast  Level FlightAware Approximate
Mon 09:25:00 PM 30.1622 -83.8111 133° Southeast  Level FlightAware Approximate
Mon 09:25:44 PM 30.2375 -83.8881 130° Southeast 164 189 7,100  Level Jacksonville Center
Mon 09:26:00 PM 30.1338 -83.7755 133° Southeast  Level FlightAware Approximate
Mon 09:26:44 PM 30.2150 -83.8517 126° Southeast 164 189 7,100  Level Jacksonville Center
Mon 09:27:00 PM 30.1053 -83.7399 133° Southeast  Level FlightAware Approximate
Mon 09:27:44 PM 30.1881 -83.8131 129° Southeast 158 182 7,000  Level Jacksonville Center
Mon 09:28:00 PM 30.0769 -83.7043 133° Southeast  Level FlightAware Approximate
Mon 09:28:44 PM 30.1611 -83.7767 131° Southeast 158 182 7,000  Level Jacksonville Center
Mon 09:29:00 PM 30.0484 -83.6688 133° Southeast  Level FlightAware Approximate
Mon 09:29:44 PM 30.1322 -83.7403 133° Southeast 158 182 7,000  Level Jacksonville Center
Mon 09:30:00 PM 30.0207 -83.6325 130° Southeast  Level FlightAware Approximate
Mon 09:30:44 PM 30.1031 -83.7042 133° Southeast 158 182 7,000  Level Jacksonville Center
Mon 09:31:44 PM 30.0764 -83.6631 127° Southeast 158 182 7,000  Level Jacksonville Center
Mon 09:32:44 PM 30.0494 -83.6269 131° Southeast 158 182 7,000  Level Jacksonville Center
Mon 09:33:44 PM 30.0203 -83.5883 131° Southeast 158 182 7,000  Level Jacksonville Center
Mon 09:34:44 PM 29.9933 -83.5519 131° Southeast 158 182 7,000  Level Jacksonville Center
Mon 09:35:44 PM 29.9686 -83.5111 125° Southeast 158 182 7,000  Level Jacksonville Center
Mon 09:36:44 PM 29.9436 -83.4703 125° Southeast 158 182 7,000  Level Jacksonville Center
Mon 09:37:44 PM 29.9231 -83.4269 119° Southeast 158 182 7,000  Level Jacksonville Center
Mon 09:38:44 PM 29.9022 -83.3814 118° Southeast 152 175 7,000 50 Level Jacksonville Center
Mon 09:39:44 PM 29.8878 -83.3333 109° East 152 175 7,100  Climbing Jacksonville Center
Mon 09:40:44 PM 29.8756 -83.2856 106° East 152 175 7,000  Descending Jacksonville Center
Mon 09:41:44 PM 29.8422 -83.2517 139° Southeast 152 175 7,100 50 Climbing Jacksonville Center
Mon 09:42:44 PM 29.8089 -83.2253 146° Southeast 152 175 7,100  Level Jacksonville Center
Mon 09:43:44 PM 29.7714 -83.1964 146° Southeast 157 181 7,100  Level Jacksonville Center
Mon 09:44:44 PM 29.7358 -83.1678 145° Southeast 157 181 7,100  Level Jacksonville Center
Mon 09:44:49 PM 29.7317 -83.1653 152° Southeast 153 176 7,100  Level Jacksonville Center
Mon 09:45:44 PM 29.7006 -83.1411 146° Southeast 152 175 7,100  Level Jacksonville Center
Mon 09:46:45 PM 29.6650 -83.1125 145° Southeast 152 175 7,100  Level Jacksonville Center
Mon 09:47:44 PM 29.6358 -83.0861 142° Southeast 157 181 7,100  Level Jacksonville Center
Mon 09:47:45 PM 29.6297 -83.0836 160° South 152 175 7,100  Level Jacksonville Center
Mon 09:48:44 PM 29.6025 -83.0575 140° Southeast 152 175 7,100  Level Jacksonville Center
Mon 09:48:46 PM 29.5961 -83.0550 161° South 151 174 7,100  Level Jacksonville Center
Mon 09:49:44 PM 29.5669 -83.0286 142° Southeast 152 175 7,100  Level Jacksonville Center
Mon 09:49:47 PM 29.5608 -83.0239 146° Southeast 152 175 7,100  Level Jacksonville Center
Mon 09:50:44 PM 29.5336 -82.9975 140° Southeast 152 175 7,100  Level Jacksonville Center
Mon 09:50:47 PM 29.5275 -82.9928 146° Southeast 153 176 7,100  Level Jacksonville Center
Mon 09:51:44 PM 29.4983 -82.9761 154° Southeast 152 175 7,100  Level Jacksonville Center
Mon 09:52:31 PM 29.4669 -82.9547 149° Southeast 150 173 7,100  Level Jacksonville Center
Mon 09:52:44 PM 29.4606 -82.9522 161° South 152 175 7,100  Level Jacksonville Center
Mon 09:53:44 PM 29.4253 -82.9283 149° Southeast 147 169 7,100  Level Jacksonville Center
Mon 09:54:38 PM 29.3875 -82.9044 151° Southeast 149 171 7,100  Level Jacksonville Center
Mon 09:54:44 PM 29.3897 -82.9044 360° North 147 169 7,100  Level Jacksonville Center
Mon 09:55:39 PM 29.3500 -82.8806 152° Southeast 148 170 7,100  Level Jacksonville Center
Mon 09:55:44 PM 29.3522 -82.8806 360° North 147 169 7,100  Level Jacksonville Center
Mon 09:56:39 PM 29.3144 -82.8592 154° Southeast 147 169 7,100  Level Jacksonville Center
Mon 09:57:40 PM 29.2789 -82.8356 150° Southeast 148 170 7,100 -49 Level Jacksonville Center
Mon 09:58:41 PM 29.2414 -82.8092 148° Southeast 143 165 7,000 -52 Descending Jacksonville Center
Mon 09:59:36 PM 29.2122 -82.7903 151° Southeast 145 167 7,000  Level Jacksonville Center
Mon 10:00:37 PM 29.1747 -82.7642 149° Southeast 148 170 7,000  Level Jacksonville Center
Mon 10:01:43 PM 29.1392 -82.7406 150° Southeast 146 168 7,000  Level Jacksonville Center
Mon 10:02:44 PM 29.1036 -82.7192 152° Southeast 145 167 7,000 47 Level Jacksonville Center
Mon 10:03:51 PM 29.0617 -82.6906 149° Southeast 144 166 7,100 49 Climbing Jacksonville Center
Mon 10:04:46 PM 29.0325 -82.6742 154° Southeast 140 161 7,100  Level Jacksonville Center
Mon 10:05:47 PM 28.9969 -82.6506 150° Southeast 140 161 7,100  Level Jacksonville Center
Mon 10:06:41 PM 28.9656 -82.6292 149° Southeast 140 161 7,100 -47 Level Jacksonville Center
Mon 10:07:54 PM 28.9239 -82.6031 151° Southeast 140 161 7,000 -47 Descending Jacksonville Center
Mon 10:08:49 PM 28.8947 -82.5842 150° Southeast 144 166 7,000  Level Jacksonville Center
Mon 10:09:49 PM 28.8569 -82.5583 149° Southeast 144 166 7,000  Level Jacksonville Center
Mon 10:12:10 PM 28.7833 -82.5000 145° Southeast 143 165 7,000  Level Tampa TRACON
Mon 10:13:10 PM 28.7500 -82.4833 156° South 141 162 7,000  Level Tampa TRACON
Mon 10:14:10 PM 28.7000 -82.4667 164° South 141 162 7,000  Level Tampa TRACON
Mon 10:15:10 PM 28.6667 -82.4333 139° Southeast 140 161 7,000  Level Tampa TRACON
Mon 10:16:11 PM 28.6333 -82.4167 156° South 142 163 7,000  Level Tampa TRACON
Mon 10:17:11 PM 28.6000 -82.4000 156° South 142 163 7,000  Level Tampa TRACON
Mon 10:18:11 PM 28.5667 -82.3667 139° Southeast 141 162 7,000  Level Tampa TRACON
Mon 10:19:11 PM 28.5333 -82.3500 156° South 140 161 7,000  Level Tampa TRACON
Mon 10:20:11 PM 28.5000 -82.3333 156° South 137 158 7,000  Level Tampa TRACON
Mon 10:21:11 PM 28.4667 -82.3167 156° South 132 152 7,000  Level Tampa TRACON
Mon 10:22:11 PM 28.4333 -82.2833 139° Southeast 129 148 7,000  Level Tampa TRACON
Mon 10:23:11 PM 28.4000 -82.2667 156° South 132 152 7,000  Level Tampa TRACON
Mon 10:24:11 PM 28.3667 -82.2500 156° South 133 153 7,000  Level Tampa TRACON
Mon 10:25:11 PM 28.3500 -82.2333 139° Southeast 133 153 7,000 50 Level Tampa TRACON
Mon 10:26:11 PM 28.3167 -82.2167 156° South 125 144 7,100  Climbing Tampa TRACON
Mon 10:27:11 PM 28.2833 -82.1833 139° Southeast 127 146 7,000 -50 Descending Tampa TRACON
Mon 10:28:11 PM 28.2500 -82.1667 156° South 128 147 7,000  Level Tampa TRACON
Mon 10:29:11 PM 28.2167 -82.1500 156° South 132 152 7,000  Level Tampa TRACON
Mon 10:30:11 PM 28.1833 -82.1333 156° South 135 155 7,000  Level Tampa TRACON
Mon 10:31:50 PM 28.1361 -82.0997 148° Southeast 100 115 7,000  Level Miami Center
Mon 10:32:53 PM 28.1036 -82.0792 151° Southeast 112 129 7,000  Level Miami Center
Mon 10:33:53 PM 28.0689 -82.0589 153° Southeast 125 144 7,000  Level Miami Center
Mon 10:34:51 PM 28.0403 -82.0386 148° Southeast 125 144 7,000  Level Miami Center
Mon 10:35:50 PM 28.0078 -82.0183 151° Southeast 130 150 7,000 -200 Level Miami Center
Mon 10:36:51 PM 27.9750 -82.0006 154° Southeast 130 150 6,600 -550 Descending Miami Center
Mon 10:37:50 PM 27.9400 -81.9825 155° Southeast 130 150 5,900 -650 Descending Miami Center
Mon 10:38:51 PM 27.9053 -81.9644 155° Southeast 130 150 5,300 -585 Descending Miami Center
Mon 10:39:53 PM 27.8683 -81.9464 157° South 130 150 4,700 -500 Descending Miami Center
Mon 10:40:51 PM 27.8314 -81.9258 154° Southeast 135 155 4,300 -513 Descending Miami Center
Mon 10:41:50 PM 27.7900 -81.9169 169° South 143 165 3,700 -550 Descending Miami Center
Mon 10:42:51 PM 27.7506 -81.9175 181° South 143 165 3,200 -347 Descending Miami Center
Mon 10:43:51 PM 27.7067 -81.9156 178° South 148 170 3,000 -100 Descending Miami Center
Mon 10:44:51 PM 27.6694 -81.9069 168° South 143 165 3,000  Level Miami Center
Mon 10:45:51 PM 27.6300 -81.9006 172° South 143 165 3,000  Level Miami Center
Mon 10:46:53 PM 27.5967 -81.9014 181° South 143 165 3,000  Level Miami Center
Mon 10:47:51 PM 27.5611 -81.8975 174° South 135 155 3,000  Level Miami Center
Mon 10:48:51 PM 27.5153 -81.8978 180° South 142 163 3,000  Level Miami Center
Mon 10:49:51 PM 27.4758 -81.8914 172° South 142 163 3,000  Level Miami Center
Mon 10:50:50 PM 27.4383 -81.8875 175° South 142 163 3,000  Level Miami Center
Mon 10:51:52 PM 27.4008 -81.8858 178° South 142 163 3,000  Level Miami Center
Mon 10:52:51 PM 27.3614 -81.8842 178° South 142 163 3,000  Level Miami Center
Mon 10:53:51 PM 27.3219 -81.8800 175° South 142 163 3,000  Level Miami Center
Mon 10:54:51 PM 27.2844 -81.8761 175° South 142 163 3,000  Level Miami Center
Mon 10:55:51 PM 27.2469 -81.8722 175° South 142 163 3,000  Level Miami Center
Mon 10:56:53 PM 27.2094 -81.8681 174° South 142 163 3,000  Level Miami Center
Mon 10:57:53 PM 27.1719 -81.8667 178° South 142 163 3,000  Level Miami Center
Mon 10:58:53 PM 27.1347 -81.8625 174° South 142 163 3,000  Level Miami Center
Mon 10:59:51 PM 27.0972 -81.8586 175° South 142 163 3,000  Level Miami Center
Mon 11:00:51 PM 27.0619 -81.8547 174° South 142 163 3,000  Level Miami Center
Mon 11:01:52 PM 27.0244 -81.8508 175° South 142 163 3,000  Level Miami Center
Mon 11:03:00 PM 26.9787 -81.8460 175° South  Level FlightAware Approximate
Mon 11:10:00 PM 26.6960 -81.8163 176° South  Level FlightAware Approximate
Mon 11:11:00 PM 26.6556 -81.8130 176° South  Level FlightAware Approximate
Mon 11:12:00 PM 26.6151 -81.8096 176° South  Level FlightAware Approximate
Mon 11:13:00 PM 26.5747 -81.8062 176° South  Level FlightAware Approximate
Mon 11:14:00 PM 26.5342 -81.8028 176° South  Level FlightAware Approximate
Mon 11:15:00 PM 26.4938 -81.7995 176° South  Level FlightAware Approximate
Mon 11:16:00 PM 26.4534 -81.7961 176° South  Level FlightAware Approximate
Mon 11:17:00 PM 26.4129 -81.7927 176° South  Level FlightAware Approximate
Mon 11:18:00 PM 26.3725 -81.7894 176° South  Level FlightAware Approximate
Mon 11:19:00 PM 26.3320 -81.7860 176° South  Level FlightAware Approximate
Mon 11:20:00 PM 26.2917 -81.7813 167° South  Level FlightAware Approximate
Mon 11:21:00 PM 26.2522 -81.7714 167° South  Level FlightAware Approximate
Mon 11:22:00 PM 26.2121 -81.7667 180° South  Level FlightAware Approximate
Mon 11:23:00 PM 26.1715 -81.7667 180° South  Level FlightAware Approximate

Login

Don't have an account? Register now (free) for customized features, flight alerts, and more!